createdAt,value
2023-08-10T00:01:21.839Z,58.05
2023-08-10T00:03:48.557Z,58.06
2023-08-10T00:06:15.432Z,58.04
2023-08-10T00:08:42.030Z,57.91
2023-08-10T00:11:08.595Z,57.94
2023-08-10T00:13:35.083Z,58.07
2023-08-10T00:16:01.634Z,58.33
2023-08-10T00:18:28.183Z,58.27
2023-08-10T00:20:54.743Z,58.47
2023-08-10T00:23:21.381Z,58.25
2023-08-10T00:25:49.002Z,58.11
2023-08-10T00:28:16.570Z,57.96
2023-08-10T00:30:43.143Z,57.93
2023-08-10T00:33:12.881Z,58.39
2023-08-10T00:35:44.443Z,58.26
2023-08-10T00:38:10.938Z,58.27
2023-08-10T00:40:37.824Z,58.30
2023-08-10T00:43:04.588Z,58.25
2023-08-10T00:45:31.237Z,58.22
2023-08-10T00:47:58.176Z,57.97
2023-08-10T00:50:25.426Z,58.37
2023-08-10T00:52:52.085Z,58.14
2023-08-10T00:55:18.704Z,57.77
2023-08-10T00:57:45.261Z,58.46
2023-08-10T01:00:12.511Z,58.43
2023-08-10T01:02:40.573Z,58.52
2023-08-10T01:05:13.623Z,58.43
2023-08-10T01:07:56.328Z,58.38
2023-08-10T01:10:46.837Z,58.26
2023-08-10T01:13:14.686Z,58.38
2023-08-10T01:16:04.098Z,58.36
2023-08-10T01:18:30.674Z,58.20
2023-08-10T01:20:57.863Z,58.40
2023-08-10T01:23:39.108Z,58.42
2023-08-10T01:26:05.805Z,58.80
2023-08-10T01:28:34.137Z,58.49
2023-08-10T01:31:01.405Z,58.66
2023-08-10T01:33:28.459Z,58.72
2023-08-10T01:35:55.009Z,58.93
2023-08-10T01:38:21.581Z,58.71
2023-08-10T01:40:52.571Z,58.44
2023-08-10T01:43:19.199Z,58.87
2023-08-10T01:45:47.036Z,59.01
2023-08-10T01:48:16.478Z,58.65
2023-08-10T01:50:44.107Z,58.57
2023-08-10T01:53:12.947Z,58.80
2023-08-10T01:55:40.273Z,58.89
2023-08-10T01:58:06.863Z,59.28
2023-08-10T02:00:34.640Z,59.17
2023-08-10T02:03:01.277Z,59.15
2023-08-10T02:05:27.845Z,59.46
2023-08-10T02:07:54.446Z,59.26
2023-08-10T02:10:21.052Z,59.18
2023-08-10T02:12:47.621Z,59.01
2023-08-10T02:15:14.228Z,59.25
2023-08-10T02:17:42.294Z,59.12
2023-08-10T02:20:13.558Z,59.15
2023-08-10T02:22:49.667Z,58.97
2023-08-10T02:25:16.927Z,59.21
2023-08-10T02:27:43.554Z,59.50
2023-08-10T02:30:11.004Z,59.10
2023-08-10T02:32:38.028Z,59.30
2023-08-10T02:35:05.790Z,59.23
2023-08-10T02:37:32.900Z,59.48
2023-08-10T02:39:59.913Z,59.48
2023-08-10T02:42:27.216Z,59.44
2023-08-10T02:44:53.758Z,59.46
2023-08-10T02:47:20.395Z,59.14
2023-08-10T02:49:46.975Z,59.14
2023-08-10T02:52:13.610Z,58.75
2023-08-10T02:54:40.171Z,58.83
2023-08-10T02:57:06.748Z,59.26
2023-08-10T02:59:33.389Z,59.10
2023-08-10T03:02:00.067Z,59.18
2023-08-10T03:04:26.686Z,59.46
2023-08-10T03:06:53.287Z,59.27
2023-08-10T03:09:19.876Z,59.71
2023-08-10T03:11:46.501Z,59.89
2023-08-10T03:14:13.093Z,59.85
2023-08-10T03:16:39.756Z,59.96
2023-08-10T03:19:06.543Z,59.80
2023-08-10T03:21:33.172Z,60.03
2023-08-10T03:23:59.798Z,59.84
2023-08-10T03:26:26.411Z,59.86
2023-08-10T03:28:53.133Z,59.84
2023-08-10T03:31:19.764Z,59.86
2023-08-10T03:33:46.348Z,59.82
2023-08-10T03:36:13.017Z,59.89
2023-08-10T03:38:39.801Z,59.82
2023-08-10T03:41:07.003Z,60.04
2023-08-10T03:43:33.607Z,59.89
2023-08-10T03:46:03.472Z,59.71
2023-08-10T03:48:30.065Z,59.96
2023-08-10T03:50:56.650Z,59.93
2023-08-10T03:53:23.218Z,59.79
2023-08-10T03:55:49.823Z,59.86
2023-08-10T03:58:16.423Z,60.20
2023-08-10T04:00:46.290Z,59.87
2023-08-10T04:03:13.466Z,59.94
2023-08-10T04:05:40.295Z,60.07
2023-08-10T04:08:10.161Z,60.05
2023-08-10T04:10:36.823Z,59.70
2023-08-10T04:13:03.438Z,59.58
2023-08-10T04:15:32.138Z,59.41
2023-08-10T04:17:58.929Z,59.56
2023-08-10T04:20:25.971Z,59.63
2023-08-10T04:22:53.891Z,59.74
2023-08-10T04:25:20.733Z,60.18
2023-08-10T04:27:47.297Z,60.13
2023-08-10T04:30:14.433Z,60.41
2023-08-10T04:32:41.772Z,60.44
2023-08-10T04:35:09.373Z,59.77
2023-08-10T04:37:36.097Z,59.68
2023-08-10T04:40:06.216Z,59.64
2023-08-10T04:42:33.117Z,59.48
2023-08-10T04:44:59.943Z,59.58
2023-08-10T04:47:26.650Z,59.46
2023-08-10T04:49:53.269Z,59.53
2023-08-10T04:52:19.904Z,59.55
2023-08-10T04:54:46.503Z,59.78
2023-08-10T04:57:13.085Z,59.63
2023-08-10T04:59:39.699Z,59.39
2023-08-10T05:02:06.620Z,59.57
2023-08-10T05:04:33.646Z,59.21
2023-08-10T05:07:00.214Z,59.59
2023-08-10T05:09:26.773Z,59.68
2023-08-10T05:11:53.329Z,59.38
2023-08-10T05:14:19.866Z,59.43
2023-08-10T05:16:46.417Z,59.35
2023-08-10T05:19:13.005Z,59.23
2023-08-10T05:21:39.525Z,59.12
2023-08-10T05:24:06.597Z,59.74
2023-08-10T05:26:33.463Z,59.50
2023-08-10T05:29:00.026Z,59.15
2023-08-10T05:31:27.125Z,59.09
2023-08-10T05:33:53.790Z,59.11
2023-08-10T05:36:20.343Z,59.38
2023-08-10T05:38:46.897Z,59.67
2023-08-10T05:41:13.652Z,59.83
2023-08-10T05:43:40.965Z,60.06
2023-08-10T05:46:08.089Z,59.55
2023-08-10T05:48:34.725Z,60.03
2023-08-10T05:51:01.396Z,60.34
2023-08-10T05:53:28.219Z,59.65
2023-08-10T05:55:54.796Z,59.42
2023-08-10T05:58:21.410Z,60.35
2023-08-10T06:00:48.107Z,61.01
2023-08-10T06:03:16.147Z,59.51
2023-08-10T06:05:43.761Z,59.99
2023-08-10T06:08:10.370Z,59.45
2023-08-10T06:10:36.967Z,58.90
2023-08-10T06:13:03.552Z,59.58
2023-08-10T06:15:30.949Z,58.68
2023-08-10T06:17:58.161Z,58.74
2023-08-10T06:20:24.910Z,59.38
2023-08-10T06:22:51.490Z,58.99
2023-08-10T06:25:18.684Z,58.63
2023-08-10T06:27:45.693Z,58.69
2023-08-10T06:30:14.414Z,57.74
2023-08-10T06:32:41.262Z,58.27
2023-08-10T06:35:09.779Z,57.46
2023-08-10T06:37:37.582Z,57.51
2023-08-10T06:40:10.001Z,57.52
2023-08-10T06:42:37.126Z,56.55
2023-08-10T06:45:05.023Z,55.14
2023-08-10T06:47:32.126Z,54.01
2023-08-10T06:49:59.161Z,52.62
2023-08-10T06:52:25.786Z,53.04
2023-08-10T06:54:55.571Z,52.55
2023-08-10T06:57:22.117Z,52.08
2023-08-10T07:02:20.522Z,48.39
2023-08-10T07:04:47.105Z,50.28
2023-08-10T07:07:15.146Z,48.67
2023-08-10T07:09:42.450Z,45.46
2023-08-10T07:12:09.001Z,43.09
2023-08-10T07:14:38.254Z,38.14
2023-08-10T07:17:05.533Z,34.67
2023-08-10T07:35:09.749Z,23.52
2023-08-10T07:38:35.852Z,21.94
2023-08-10T07:41:32.500Z,21.51
2023-08-10T07:44:06.056Z,22.06
2023-08-10T07:46:34.044Z,20.32
2023-08-10T07:49:00.900Z,20.00
2023-08-10T07:51:27.400Z,19.79
2023-08-10T07:53:53.968Z,19.15
2023-08-10T07:56:20.737Z,19.37
2023-08-10T07:58:47.228Z,19.18
2023-08-10T08:01:15.363Z,18.17
2023-08-10T08:03:42.269Z,18.07
2023-08-10T08:06:09.705Z,18.64
2023-08-10T08:08:36.266Z,18.27
2023-08-10T08:11:02.987Z,16.43
2023-08-10T08:13:29.500Z,15.80
2023-08-10T08:15:58.238Z,16.27
2023-08-10T08:18:50.785Z,16.08
2023-08-10T08:21:21.445Z,16.05
2023-08-10T08:23:49.438Z,16.40
2023-08-10T08:26:16.030Z,16.51
2023-08-10T08:28:43.347Z,15.01
2023-08-10T08:31:10.057Z,14.98
2023-08-10T08:33:36.938Z,15.58
2023-08-10T08:36:03.727Z,15.05
2023-08-10T08:38:33.775Z,15.16
2023-08-10T08:41:05.033Z,15.51
2023-08-10T08:43:31.539Z,15.32
2023-08-10T08:45:58.873Z,14.24
2023-08-10T08:48:26.880Z,14.15
2023-08-10T08:50:53.362Z,15.31
2023-08-10T08:53:19.886Z,13.29
2023-08-10T08:55:47.855Z,14.83
2023-08-10T08:58:17.785Z,13.25
2023-08-10T09:00:51.721Z,12.71
2023-08-10T09:03:18.439Z,13.38
2023-08-10T09:05:45.925Z,12.60
2023-08-10T09:08:17.073Z,13.45
2023-08-10T09:10:44.468Z,12.56
2023-08-10T09:13:17.276Z,12.50
2023-08-10T09:15:44.303Z,13.02
2023-08-10T09:18:10.802Z,13.22
2023-08-10T09:20:37.425Z,12.44
2023-08-10T09:23:04.215Z,13.96
2023-08-10T09:25:41.390Z,16.10
2023-08-10T09:28:10.819Z,16.97
2023-08-10T09:37:51.778Z,21.69
2023-08-10T09:40:18.485Z,21.15
2023-08-10T09:42:45.023Z,21.49
2023-08-10T09:45:13.015Z,23.99
2023-08-10T09:47:40.897Z,23.94
2023-08-10T09:50:09.419Z,24.13
2023-08-10T09:52:37.215Z,25.38
2023-08-10T10:18:01.577Z,27.45
2023-08-10T10:20:28.726Z,28.90
2023-08-10T10:23:16.909Z,28.83
2023-08-10T10:45:08.669Z,32.97
2023-08-10T10:47:39.632Z,31.62
2023-08-10T10:50:19.768Z,32.25
2023-08-10T10:52:56.541Z,32.83
2023-08-10T10:55:27.335Z,33.45
2023-08-10T10:57:54.030Z,35.11
2023-08-10T11:00:21.949Z,35.46
2023-08-10T11:02:49.108Z,34.13
2023-08-10T11:05:17.289Z,33.82
2023-08-10T11:07:49.333Z,34.26
2023-08-10T11:10:19.960Z,33.73
2023-08-10T11:12:48.154Z,36.25
2023-08-10T11:15:15.031Z,34.59
2023-08-10T11:17:49.643Z,35.66
2023-08-10T11:20:17.132Z,34.88
2023-08-10T11:22:43.713Z,34.38
2023-08-10T11:25:17.637Z,35.94
2023-08-10T11:27:45.440Z,35.60
2023-08-10T11:30:14.461Z,34.61
2023-08-10T11:32:41.745Z,35.23
2023-08-10T11:35:13.669Z,36.05
2023-08-10T11:37:41.359Z,35.69
2023-08-10T11:40:15.174Z,35.39
2023-08-10T11:42:46.018Z,36.45
2023-08-10T11:45:18.023Z,36.85
2023-08-10T11:48:02.426Z,36.64
2023-08-10T11:50:31.094Z,35.90
2023-08-10T11:52:59.454Z,34.34
2023-08-10T11:55:28.816Z,35.36
2023-08-10T11:57:56.630Z,35.30
2023-08-10T12:00:27.278Z,35.22
2023-08-10T12:03:11.635Z,36.46
2023-08-10T12:05:46.255Z,35.74
2023-08-10T12:08:17.939Z,36.68
2023-08-10T12:10:46.336Z,35.12
2023-08-10T12:13:16.551Z,33.77
2023-08-10T12:15:47.819Z,34.00
2023-08-10T12:18:18.671Z,35.83
2023-08-10T12:20:47.841Z,33.98
2023-08-10T12:23:15.459Z,35.75
2023-08-10T12:25:42.237Z,35.96
2023-08-10T12:28:09.465Z,36.75
2023-08-10T12:30:36.099Z,36.33
2023-08-10T12:33:02.829Z,36.26
2023-08-10T12:35:29.338Z,34.58
2023-08-10T12:37:55.889Z,35.19
2023-08-10T12:40:22.397Z,36.54
2023-08-10T12:42:49.040Z,35.17
2023-08-10T12:45:15.854Z,34.93
2023-08-10T12:47:43.216Z,33.78
2023-08-10T12:50:10.911Z,33.82
2023-08-10T12:52:38.067Z,34.50
2023-08-10T12:55:04.793Z,33.30
2023-08-10T12:57:31.299Z,32.57
2023-08-10T12:59:59.473Z,31.87
2023-08-10T13:02:33.577Z,33.19
2023-08-10T13:05:00.984Z,33.44
2023-08-10T13:07:27.592Z,31.57
2023-08-10T13:09:54.066Z,32.99
2023-08-10T13:12:20.572Z,33.78
2023-08-10T13:14:47.098Z,33.34
2023-08-10T13:17:13.680Z,33.92
2023-08-10T13:19:40.248Z,33.22
2023-08-10T13:22:07.782Z,34.87
2023-08-10T13:24:35.073Z,35.44
2023-08-10T13:27:03.037Z,35.42
2023-08-10T13:29:30.558Z,36.51
2023-08-10T13:31:57.614Z,35.81
2023-08-10T13:34:24.487Z,36.33
2023-08-10T13:36:52.743Z,35.08
2023-08-10T13:39:19.527Z,35.75
2023-08-10T13:41:46.019Z,36.84
2023-08-10T13:44:12.630Z,36.07
2023-08-10T13:46:39.187Z,35.40
2023-08-10T13:49:05.683Z,34.55
2023-08-10T13:51:33.052Z,36.09
2023-08-10T13:53:59.551Z,35.20
2023-08-10T13:56:26.696Z,35.29
2023-08-10T13:58:53.260Z,33.57
2023-08-10T14:01:20.236Z,36.00
2023-08-10T14:03:46.857Z,35.52
2023-08-10T14:06:13.462Z,34.84
2023-08-10T14:08:40.010Z,35.60
2023-08-10T14:11:06.511Z,34.20
2023-08-10T14:13:33.092Z,35.65
2023-08-10T14:16:00.020Z,35.76
2023-08-10T14:18:26.747Z,36.56
2023-08-10T14:20:53.405Z,34.20
2023-08-10T14:23:20.117Z,35.57
2023-08-10T14:25:46.722Z,36.18
2023-08-10T14:28:13.248Z,35.38
2023-08-10T14:30:39.899Z,35.58
2023-08-10T14:33:06.571Z,35.34
2023-08-10T14:35:33.231Z,34.58
2023-08-10T14:38:01.921Z,36.34
2023-08-10T14:40:28.480Z,34.86
2023-08-10T14:42:55.090Z,35.32
2023-08-10T14:45:21.931Z,34.67
2023-08-10T14:47:59.236Z,34.87
2023-08-10T14:50:26.629Z,34.72
2023-08-10T14:52:56.190Z,33.69
2023-08-10T14:55:22.909Z,33.21
2023-08-10T14:57:50.495Z,34.49
2023-08-10T15:00:17.343Z,35.52
2023-08-10T15:02:47.548Z,36.05
2023-08-10T15:05:14.852Z,34.60
2023-08-10T15:07:41.772Z,34.89
2023-08-10T15:10:08.523Z,35.98
2023-08-10T15:12:35.069Z,37.04
2023-08-10T15:15:01.701Z,34.47
2023-08-10T15:17:28.274Z,33.46
2023-08-10T15:19:54.874Z,34.67
2023-08-10T15:22:21.437Z,33.42
2023-08-10T15:24:47.919Z,35.01
2023-08-10T15:27:14.402Z,33.85
2023-08-10T15:29:40.914Z,35.46
2023-08-10T15:32:07.626Z,35.66
2023-08-10T15:34:34.320Z,34.77
2023-08-10T15:37:00.867Z,35.53
2023-08-10T15:39:27.344Z,37.35
2023-08-10T15:41:53.805Z,36.36
2023-08-10T15:44:20.285Z,36.67
2023-08-10T15:46:46.754Z,36.43
2023-08-10T15:49:13.249Z,35.69
2023-08-10T15:51:39.763Z,36.07
2023-08-10T15:54:10.252Z,35.48
2023-08-10T15:56:36.752Z,35.27
2023-08-10T15:59:03.238Z,36.28
2023-08-10T16:01:31.502Z,34.27
2023-08-10T16:03:58.896Z,35.23
2023-08-10T16:06:25.556Z,35.03
2023-08-10T16:08:52.201Z,36.13
2023-08-10T16:11:21.490Z,36.09
2023-08-10T16:13:47.980Z,35.92
2023-08-10T16:16:14.509Z,36.57
2023-08-10T16:18:41.034Z,35.78
2023-08-10T16:21:07.513Z,36.31
2023-08-10T16:23:34.079Z,36.27
2023-08-10T16:26:00.556Z,33.74
2023-08-10T16:28:27.063Z,34.16
2023-08-10T16:30:53.578Z,33.99
2023-08-10T16:33:20.069Z,34.89
2023-08-10T16:35:46.591Z,34.45
2023-08-10T16:38:13.090Z,34.20
2023-08-10T16:40:39.567Z,34.11
2023-08-10T16:43:06.135Z,33.75
2023-08-10T16:45:32.697Z,33.54
2023-08-10T16:47:59.277Z,33.36
2023-08-10T16:50:25.878Z,33.15
2023-08-10T16:52:52.429Z,33.33
2023-08-10T16:55:19.281Z,34.49
2023-08-10T16:57:45.761Z,34.46
2023-08-10T17:00:13.591Z,35.40
2023-08-10T17:02:40.829Z,35.58
2023-08-10T17:05:08.037Z,35.56
2023-08-10T17:07:34.521Z,35.81
2023-08-10T17:10:01.037Z,36.27
2023-08-10T17:12:27.924Z,36.68
2023-08-10T17:14:54.429Z,37.22
2023-08-10T17:17:21.052Z,37.63
2023-08-10T17:19:47.546Z,38.09
2023-08-10T17:22:14.146Z,38.22
2023-08-10T17:24:40.648Z,38.83
2023-08-10T17:27:07.161Z,38.74
2023-08-10T17:29:33.644Z,38.83
2023-08-10T17:32:00.402Z,39.29
2023-08-10T17:34:26.945Z,38.72
2023-08-10T17:36:53.437Z,38.84
2023-08-10T17:39:19.919Z,40.43
2023-08-10T17:41:47.862Z,42.17
2023-08-10T17:44:14.468Z,42.40
2023-08-10T17:46:40.983Z,44.23
2023-08-10T17:49:07.481Z,43.47
2023-08-10T17:51:33.980Z,45.73
2023-08-10T17:54:00.458Z,46.26
2023-08-10T17:56:26.935Z,44.85
2023-08-10T17:58:53.436Z,45.15
2023-08-10T18:01:20.550Z,43.95
2023-08-10T18:03:52.061Z,41.89
2023-08-10T18:06:18.601Z,44.34
2023-08-10T18:08:45.072Z,44.54
2023-08-10T18:11:11.560Z,43.41
2023-08-10T18:13:38.052Z,43.32
2023-08-10T18:16:04.695Z,43.85
2023-08-10T18:18:31.177Z,44.58
2023-08-10T18:21:00.362Z,44.50
2023-08-10T18:23:29.307Z,44.81
2023-08-10T18:25:56.777Z,45.82
2023-08-10T18:28:23.248Z,45.97
2023-08-10T18:30:49.776Z,45.39
2023-08-10T18:33:16.388Z,45.69
2023-08-10T18:35:43.237Z,45.83
2023-08-10T18:38:09.726Z,46.54
2023-08-10T18:40:39.739Z,46.67
2023-08-10T18:43:06.471Z,47.05
2023-08-10T18:45:34.058Z,46.74
2023-08-10T18:48:00.686Z,46.65
2023-08-10T18:50:27.680Z,47.24
2023-08-10T18:52:54.376Z,46.92
2023-08-10T18:55:21.080Z,47.16
2023-08-10T18:57:47.768Z,47.48
2023-08-10T19:00:14.596Z,47.62
2023-08-10T19:02:44.178Z,47.65
2023-08-10T19:05:10.747Z,47.90
2023-08-10T19:07:38.465Z,47.45
2023-08-10T19:10:06.063Z,47.26
2023-08-10T19:12:34.411Z,47.65
2023-08-10T19:15:00.924Z,47.08
2023-08-10T19:17:27.470Z,47.44
2023-08-10T19:19:54.085Z,47.43
2023-08-10T19:22:20.722Z,47.39
2023-08-10T19:24:47.184Z,47.63
2023-08-10T19:27:13.680Z,48.06
2023-08-10T19:29:40.423Z,47.49
2023-08-10T19:32:07.291Z,47.64
2023-08-10T19:34:34.089Z,47.40
2023-08-10T19:37:00.585Z,48.14
2023-08-10T19:39:29.537Z,48.02
2023-08-10T19:41:57.598Z,48.33
2023-08-10T19:44:24.088Z,48.83
2023-08-10T19:46:50.571Z,48.55
2023-08-10T19:49:17.087Z,48.65
2023-08-10T19:51:43.573Z,48.58
2023-08-10T19:54:10.076Z,48.55
2023-08-10T19:56:36.627Z,48.64
2023-08-10T19:59:03.142Z,49.00
2023-08-10T20:01:29.661Z,49.63
2023-08-10T20:03:56.570Z,49.95
2023-08-10T20:06:23.827Z,49.99
2023-08-10T20:08:50.326Z,49.71
2023-08-10T20:11:16.862Z,49.95
2023-08-10T20:13:43.378Z,49.84
2023-08-10T20:16:09.910Z,50.74
2023-08-10T20:18:36.409Z,50.51
2023-08-10T20:21:02.911Z,50.77
2023-08-10T20:23:32.098Z,50.73
2023-08-10T20:25:59.649Z,51.08
2023-08-10T20:28:26.195Z,51.36
2023-08-10T20:30:52.758Z,51.18
2023-08-10T20:33:19.258Z,51.10
2023-08-10T20:35:46.524Z,51.38
2023-08-10T20:38:13.133Z,50.98
2023-08-10T20:40:39.748Z,51.32
2023-08-10T20:43:06.270Z,51.10
2023-08-10T20:45:32.769Z,51.21
2023-08-10T20:48:00.522Z,51.50
2023-08-10T20:50:27.842Z,51.77
2023-08-10T20:52:54.318Z,51.77
2023-08-10T20:55:21.008Z,51.74
2023-08-10T20:57:50.141Z,51.57
2023-08-10T21:00:17.225Z,51.93
2023-08-10T21:02:43.776Z,52.91
2023-08-10T21:05:10.326Z,52.42
2023-08-10T21:07:37.022Z,52.32
2023-08-10T21:10:03.629Z,52.14
2023-08-10T21:12:30.138Z,52.37
2023-08-10T21:14:56.705Z,52.37
2023-08-10T21:17:23.211Z,52.27
2023-08-10T21:19:49.731Z,52.82
2023-08-10T21:22:16.331Z,52.55
2023-08-10T21:24:42.821Z,53.05
2023-08-10T21:27:09.743Z,52.81
2023-08-10T21:29:42.117Z,53.20
2023-08-10T21:32:08.867Z,53.20
2023-08-10T21:34:35.403Z,53.32
2023-08-10T21:37:01.962Z,53.35
2023-08-10T21:39:28.501Z,53.55
2023-08-10T21:41:55.026Z,53.75
2023-08-10T21:44:21.510Z,53.98
2023-08-10T21:46:49.722Z,53.44
2023-08-10T21:49:16.260Z,53.91
2023-08-10T21:51:42.747Z,53.81
2023-08-10T21:54:09.244Z,54.48
2023-08-10T21:56:35.808Z,53.82
2023-08-10T21:59:02.295Z,53.89
2023-08-10T22:01:28.763Z,53.76
2023-08-10T22:03:55.247Z,54.06
2023-08-10T22:06:21.788Z,53.84
2023-08-10T22:08:48.298Z,53.88
2023-08-10T22:11:14.795Z,53.77
2023-08-10T22:13:41.333Z,53.67
2023-08-10T22:16:07.848Z,53.80
2023-08-10T22:18:35.730Z,53.36
2023-08-10T22:21:02.557Z,53.47
2023-08-10T22:23:29.149Z,53.49
2023-08-10T22:25:55.670Z,53.68
2023-08-10T22:28:22.170Z,53.93
2023-08-10T22:30:48.716Z,53.50
2023-08-10T22:33:15.257Z,53.55
2023-08-10T22:35:41.780Z,53.72
2023-08-10T22:38:08.254Z,53.19
2023-08-10T22:40:34.970Z,53.47
2023-08-10T22:43:02.374Z,53.35
2023-08-10T22:45:28.870Z,53.68
2023-08-10T22:47:55.379Z,53.94
2023-08-10T22:50:22.407Z,54.29
2023-08-10T22:52:48.925Z,53.79
2023-08-10T22:55:15.466Z,54.04
2023-08-10T22:57:41.968Z,54.13
2023-08-10T23:00:09.082Z,54.67
2023-08-10T23:02:35.670Z,54.80
2023-08-10T23:05:02.243Z,55.05
2023-08-10T23:07:28.762Z,54.76
2023-08-10T23:09:56.065Z,54.98
2023-08-10T23:12:25.948Z,54.92
2023-08-10T23:14:53.882Z,55.22
2023-08-10T23:17:20.415Z,54.98
2023-08-10T23:19:46.926Z,55.28
2023-08-10T23:22:13.402Z,55.26
2023-08-10T23:24:39.928Z,55.33
2023-08-10T23:27:06.442Z,55.31
2023-08-10T23:29:33.085Z,55.26
2023-08-10T23:32:00.372Z,54.98
2023-08-10T23:34:26.875Z,55.01
2023-08-10T23:36:53.537Z,54.78
2023-08-10T23:39:20.032Z,55.09
2023-08-10T23:41:46.546Z,54.92
2023-08-10T23:44:13.788Z,55.20
2023-08-10T23:46:40.521Z,54.56
2023-08-10T23:49:07.095Z,54.48
2023-08-10T23:51:33.569Z,54.68
2023-08-10T23:54:00.060Z,54.90
2023-08-10T23:56:26.560Z,54.68
2023-08-10T23:58:53.079Z,55.09
